createdAt,value
2023-01-18T00:01:50.405Z,19.40
2023-01-18T00:04:23.325Z,21.62
2023-01-18T00:06:57.437Z,20.95
2023-01-18T00:09:30.578Z,22.27
2023-01-18T00:12:03.126Z,21.37
2023-01-18T00:14:35.764Z,20.97
2023-01-18T00:17:08.390Z,19.55
2023-01-18T00:19:40.855Z,21.05
2023-01-18T00:22:13.321Z,21.77
2023-01-18T00:24:45.696Z,21.33
2023-01-18T00:27:18.139Z,19.27
2023-01-18T00:29:51.357Z,21.73
2023-01-18T00:32:23.866Z,20.65
2023-01-18T00:34:56.385Z,20.48
2023-01-18T00:37:29.562Z,19.60
2023-01-18T00:40:01.937Z,20.32
2023-01-18T00:42:53.082Z,20.10
2023-01-18T00:45:25.516Z,20.75
2023-01-18T00:47:58.589Z,18.85
2023-01-18T00:50:31.368Z,20.92
2023-01-18T00:53:03.854Z,19.32
2023-01-18T00:55:36.341Z,18.95
2023-01-18T00:58:09.334Z,22.02
2023-01-18T01:00:42.669Z,20.10
2023-01-18T01:06:05.599Z,18.40
2023-01-18T01:08:38.283Z,20.82
2023-01-18T01:11:13.155Z,19.65
2023-01-18T01:14:03.957Z,19.55
2023-01-18T01:16:55.236Z,18.70
2023-01-18T01:19:45.324Z,18.27
2023-01-18T01:22:35.519Z,19.57
2023-01-18T01:25:26.251Z,19.67
2023-01-18T01:27:58.864Z,19.87
2023-01-18T01:30:31.839Z,19.65
2023-01-18T01:33:04.560Z,20.05
2023-01-18T01:35:38.133Z,19.07
2023-01-18T01:38:11.227Z,19.02
2023-01-18T01:40:43.960Z,17.75
2023-01-18T01:43:16.482Z,18.57
2023-01-18T01:45:50.082Z,19.35
2023-01-18T01:48:22.810Z,19.15
2023-01-18T01:50:55.208Z,18.15
2023-01-18T01:53:27.719Z,18.17
2023-01-18T01:56:00.262Z,18.07
2023-01-18T01:58:33.145Z,19.42
2023-01-18T02:01:06.020Z,20.50
2023-01-18T02:03:40.226Z,19.95
2023-01-18T02:06:19.240Z,22.00
2023-01-18T02:08:52.071Z,23.27
2023-01-18T02:11:25.510Z,22.40
2023-01-18T02:14:01.496Z,20.12
2023-01-18T02:17:07.270Z,20.80
2023-01-18T02:20:11.082Z,20.60
2023-01-18T02:23:15.573Z,21.73
2023-01-18T02:26:19.609Z,23.75
2023-01-18T02:28:59.301Z,24.35
2023-01-18T02:31:38.513Z,23.40
2023-01-18T02:34:24.349Z,22.60
2023-01-18T02:37:08.262Z,23.38
2023-01-18T02:40:14.056Z,22.98
2023-01-18T02:43:04.669Z,21.02
2023-01-18T02:45:59.946Z,21.02
2023-01-18T02:48:41.863Z,19.60
2023-01-18T02:51:14.227Z,20.50
2023-01-18T02:53:47.315Z,21.33
2023-01-18T02:56:34.631Z,20.50
2023-01-18T02:59:17.999Z,20.02
2023-01-18T03:01:59.944Z,19.57
2023-01-18T03:04:49.589Z,21.27
2023-01-18T03:07:32.068Z,20.95
2023-01-18T03:10:08.101Z,18.90
2023-01-18T03:13:02.601Z,19.60
2023-01-18T03:18:32.708Z,20.02
2023-01-18T03:21:05.724Z,19.92
2023-01-18T03:23:41.179Z,18.27
2023-01-18T03:26:18.940Z,16.55
2023-01-18T03:29:14.471Z,19.37
2023-01-18T03:32:15.042Z,18.73
2023-01-18T03:34:55.023Z,17.27
2023-01-18T03:37:39.741Z,20.17
2023-01-18T03:40:19.565Z,19.92
2023-01-18T03:43:15.003Z,18.73
2023-01-18T03:45:49.539Z,17.70
2023-01-18T03:48:22.006Z,18.17
2023-01-18T03:51:19.067Z,19.40
2023-01-18T03:54:27.157Z,18.92
2023-01-18T03:57:22.705Z,17.65
2023-01-18T03:59:55.031Z,18.40
2023-01-18T04:02:28.513Z,18.98
2023-01-18T04:05:02.821Z,18.65
2023-01-18T04:07:35.544Z,18.42
2023-01-18T04:10:08.587Z,19.75
2023-01-18T04:12:40.973Z,19.70
2023-01-18T04:15:13.572Z,18.52
2023-01-18T04:17:48.237Z,17.75
2023-01-18T04:20:21.066Z,16.87
2023-01-18T04:22:54.857Z,17.05
2023-01-18T04:25:27.570Z,17.90
2023-01-18T04:28:00.115Z,17.48
2023-01-18T04:30:32.662Z,16.82
2023-01-18T04:33:05.105Z,17.23
2023-01-18T04:35:37.867Z,17.52
2023-01-18T04:38:10.417Z,16.55
2023-01-18T04:40:43.180Z,16.52
2023-01-18T04:43:15.589Z,14.95
2023-01-18T04:45:57.606Z,16.95
2023-01-18T04:48:29.962Z,16.67
2023-01-18T04:51:02.451Z,15.90
2023-01-18T04:53:36.574Z,15.40
2023-01-18T04:56:09.214Z,16.40
2023-01-18T04:58:41.734Z,15.48
2023-01-18T05:01:14.585Z,15.08
2023-01-18T05:03:47.283Z,15.40
2023-01-18T05:06:22.932Z,15.28
2023-01-18T05:08:55.582Z,16.65
2023-01-18T05:11:28.119Z,16.45
2023-01-18T05:14:00.685Z,15.43
2023-01-18T05:16:33.226Z,14.13
2023-01-18T05:19:05.964Z,15.45
2023-01-18T05:21:38.541Z,15.05
2023-01-18T05:24:11.844Z,15.70
2023-01-18T05:26:45.380Z,15.93
2023-01-18T05:29:18.261Z,14.50
2023-01-18T05:31:51.309Z,16.02
2023-01-18T05:34:23.682Z,15.48
2023-01-18T05:36:56.023Z,17.77
2023-01-18T05:39:28.507Z,19.20
2023-01-18T05:42:01.295Z,19.82
2023-01-18T05:44:34.898Z,20.40
2023-01-18T05:47:07.366Z,19.95
2023-01-18T05:49:41.833Z,20.48
2023-01-18T05:52:14.105Z,19.98
2023-01-18T05:54:46.952Z,19.45
2023-01-18T05:57:19.552Z,20.62
2023-01-18T05:59:53.613Z,21.17
2023-01-18T06:02:26.976Z,20.90
2023-01-18T06:04:59.313Z,19.75
2023-01-18T06:07:31.644Z,19.12
2023-01-18T06:10:04.387Z,18.92
2023-01-18T06:12:36.988Z,21.25
2023-01-18T06:15:10.561Z,19.40
2023-01-18T06:17:43.817Z,19.85
2023-01-18T06:20:16.304Z,18.12
2023-01-18T06:22:48.726Z,18.35
2023-01-18T06:25:22.137Z,18.52
2023-01-18T06:27:56.505Z,17.10
2023-01-18T06:30:29.089Z,18.67
2023-01-18T06:33:04.333Z,17.23
2023-01-18T06:35:37.348Z,17.75
2023-01-18T06:38:09.849Z,17.35
2023-01-18T06:40:42.990Z,16.93
2023-01-18T06:43:16.097Z,19.05
2023-01-18T06:45:54.660Z,16.85
2023-01-18T06:48:27.525Z,18.73
2023-01-18T06:51:00.274Z,16.55
2023-01-18T06:53:33.309Z,18.15
2023-01-18T06:56:07.840Z,18.15
2023-01-18T06:58:40.375Z,18.55
2023-01-18T07:01:12.991Z,17.80
2023-01-18T07:03:45.526Z,18.17
2023-01-18T07:06:18.080Z,17.23
2023-01-18T07:08:50.982Z,17.55
2023-01-18T07:11:23.570Z,17.20
2023-01-18T07:13:56.152Z,17.75
2023-01-18T07:16:30.292Z,18.52
2023-01-18T07:19:04.405Z,18.82
2023-01-18T07:24:08.812Z,19.20
2023-01-18T07:26:41.377Z,17.07
2023-01-18T07:29:14.879Z,18.12
2023-01-18T07:31:47.456Z,18.82
2023-01-18T07:34:20.044Z,21.02
2023-01-18T07:36:52.761Z,20.10
2023-01-18T07:39:25.194Z,21.05
2023-01-18T07:41:58.209Z,18.17
2023-01-18T07:44:30.593Z,21.57
2023-01-18T07:47:02.932Z,19.87
2023-01-18T07:49:35.350Z,20.37
2023-01-18T07:52:08.329Z,21.52
2023-01-18T07:54:40.674Z,21.95
2023-01-18T07:57:13.612Z,21.73
2023-01-18T07:59:46.143Z,22.05
2023-01-18T08:02:18.626Z,21.90
2023-01-18T08:04:51.773Z,20.95
2023-01-18T08:07:24.406Z,22.50
2023-01-18T08:09:58.159Z,21.42
2023-01-18T08:12:30.773Z,21.15
2023-01-18T08:15:04.595Z,21.45
2023-01-18T08:17:37.832Z,22.80
2023-01-18T08:20:11.563Z,24.12
2023-01-18T08:22:44.135Z,23.02
2023-01-18T08:25:17.582Z,22.52
2023-01-18T08:27:50.191Z,21.55
2023-01-18T08:30:23.866Z,21.25
2023-01-18T08:32:59.204Z,21.77
2023-01-18T08:35:34.832Z,20.82
2023-01-18T08:38:07.436Z,22.55
2023-01-18T08:40:40.677Z,22.05
2023-01-18T08:43:13.584Z,22.30
2023-01-18T08:45:47.721Z,19.48
2023-01-18T08:48:20.152Z,21.07
2023-01-18T08:50:52.697Z,20.20
2023-01-18T08:53:25.712Z,19.92
2023-01-18T08:55:58.263Z,19.90
2023-01-18T08:58:33.441Z,19.27
2023-01-18T09:01:09.517Z,19.60
2023-01-18T09:03:42.658Z,20.95
2023-01-18T09:06:16.873Z,19.52
2023-01-18T09:08:53.206Z,20.80
2023-01-18T09:11:27.015Z,18.12
2023-01-18T09:14:01.495Z,18.60
2023-01-18T09:16:34.121Z,19.80
2023-01-18T09:19:07.378Z,18.40
2023-01-18T09:21:40.476Z,19.07
2023-01-18T09:24:13.250Z,19.30
2023-01-18T09:26:47.315Z,16.45
2023-01-18T09:29:19.992Z,16.05
2023-01-18T09:31:54.085Z,16.60
2023-01-18T09:34:26.430Z,17.32
2023-01-18T09:36:58.743Z,16.00
2023-01-18T09:39:40.218Z,15.90
2023-01-18T09:42:05.577Z,16.50
2023-01-18T09:44:42.590Z,14.90
2023-01-18T09:47:25.057Z,16.12
2023-01-18T09:49:59.551Z,16.12
2023-01-18T09:52:45.206Z,15.25
2023-01-18T09:55:24.982Z,15.68
2023-01-18T09:58:46.317Z,14.63
2023-01-18T10:01:22.895Z,16.30
2023-01-18T10:04:06.855Z,13.65
2023-01-18T10:09:43.503Z,13.65
2023-01-18T10:15:28.557Z,16.37
2023-01-18T10:18:01.196Z,15.85
2023-01-18T10:20:44.080Z,15.13
2023-01-18T10:23:42.659Z,15.63
2023-01-18T10:26:22.293Z,16.02
2023-01-18T10:29:13.057Z,13.48
2023-01-18T10:32:08.122Z,16.90
2023-01-18T10:34:45.049Z,14.35
2023-01-18T10:37:38.476Z,14.85
2023-01-18T10:40:12.736Z,13.72
2023-01-18T10:42:56.978Z,14.58
2023-01-18T10:45:31.897Z,15.15
2023-01-18T10:51:06.133Z,14.50
2023-01-18T10:53:39.963Z,14.35
2023-01-18T10:56:21.945Z,15.83
2023-01-18T10:58:59.327Z,13.88
2023-01-18T11:01:34.873Z,14.40
2023-01-18T11:04:32.478Z,13.90
2023-01-18T11:07:05.509Z,14.78
2023-01-18T11:10:00.883Z,13.55
2023-01-18T11:12:47.234Z,13.18
2023-01-18T11:15:24.159Z,12.43
2023-01-18T11:18:06.320Z,12.98
2023-01-18T11:20:52.979Z,12.10
2023-01-18T11:23:38.477Z,12.40
2023-01-18T11:26:20.136Z,14.20
2023-01-18T11:29:05.873Z,12.07
2023-01-18T11:31:48.765Z,12.70
2023-01-18T11:34:47.024Z,13.38
2023-01-18T11:37:34.583Z,12.15
2023-01-18T11:40:32.470Z,13.10
2023-01-18T11:43:23.941Z,12.53
2023-01-18T11:46:20.927Z,11.97
2023-01-18T11:49:00.757Z,12.53
2023-01-18T11:51:39.609Z,12.90
2023-01-18T11:54:18.461Z,13.08
2023-01-18T11:56:55.702Z,12.85
2023-01-18T11:59:52.439Z,10.93
2023-01-18T12:02:57.357Z,12.05
2023-01-18T12:06:04.424Z,13.08
2023-01-18T12:09:03.782Z,11.90
2023-01-18T12:11:52.759Z,12.88
2023-01-18T12:15:13.887Z,10.95
2023-01-18T12:18:13.041Z,11.43
2023-01-18T12:20:56.218Z,11.53
2023-01-18T12:23:42.479Z,11.15
2023-01-18T12:26:28.626Z,11.15
2023-01-18T12:29:34.651Z,10.40
2023-01-18T12:32:19.032Z,11.80
2023-01-18T12:35:26.298Z,11.80
2023-01-18T12:38:29.978Z,10.72
2023-01-18T12:41:45.085Z,10.35
2023-01-18T12:44:45.033Z,11.40
2023-01-18T12:47:39.701Z,10.05
2023-01-18T12:50:31.021Z,10.23
2023-01-18T12:53:20.202Z,11.85
2023-01-18T12:55:54.892Z,10.80
2023-01-18T12:58:27.974Z,11.45
2023-01-18T13:01:03.925Z,11.97
2023-01-18T16:14:38.484Z,9.28
2023-01-18T16:17:18.231Z,9.80
2023-01-18T16:19:52.661Z,9.75
2023-01-18T16:22:37.272Z,8.10
2023-01-18T16:25:21.230Z,8.68
2023-01-18T16:27:55.587Z,8.93
2023-01-18T16:30:39.596Z,10.30
2023-01-18T16:33:20.977Z,9.10
2023-01-18T16:35:53.357Z,8.78
2023-01-18T16:38:25.875Z,8.88
2023-01-18T16:40:58.385Z,10.58
2023-01-18T16:43:30.838Z,9.95
2023-01-18T16:46:04.676Z,9.13
2023-01-18T16:48:37.882Z,8.68
2023-01-18T16:51:16.807Z,10.53
2023-01-18T16:53:49.619Z,9.80
2023-01-18T16:56:22.398Z,9.53
2023-01-18T16:58:55.144Z,8.98
2023-01-18T17:01:27.856Z,9.23
2023-01-18T17:04:00.378Z,10.18
2023-01-18T17:06:33.535Z,9.80
2023-01-18T17:09:25.120Z,8.78
2023-01-18T17:11:58.068Z,8.93
2023-01-18T17:14:30.366Z,8.43
2023-01-18T17:17:02.792Z,9.85
2023-01-18T17:19:37.273Z,9.03
2023-01-18T17:22:09.652Z,8.10
2023-01-18T17:24:42.079Z,9.28
2023-01-18T17:27:14.874Z,9.00
2023-01-18T17:29:47.431Z,9.43
2023-01-18T17:32:19.825Z,9.08
2023-01-18T17:34:52.679Z,8.88
2023-01-18T17:37:24.987Z,8.85
2023-01-18T17:40:12.058Z,9.65
2023-01-18T17:42:32.486Z,9.00
2023-01-18T17:45:06.679Z,9.63
2023-01-18T17:47:42.355Z,8.10
2023-01-18T17:50:17.590Z,9.45
2023-01-18T17:52:49.897Z,9.75
2023-01-18T17:55:27.431Z,9.80
2023-01-18T18:00:29.180Z,8.55
2023-01-18T18:03:02.266Z,7.50
2023-01-18T18:05:34.931Z,8.40
2023-01-18T18:08:08.151Z,8.55
2023-01-18T18:10:44.183Z,7.33
2023-01-18T18:13:16.771Z,8.30
2023-01-18T18:15:50.805Z,7.45
2023-01-18T18:18:23.906Z,8.55
2023-01-18T18:21:01.625Z,7.90
2023-01-18T18:23:34.308Z,7.37
2023-01-18T18:26:06.831Z,8.88
2023-01-18T18:28:40.318Z,9.03
2023-01-18T18:31:17.738Z,8.05
2023-01-18T18:33:51.211Z,7.78
2023-01-18T18:36:25.299Z,7.37
2023-01-18T18:38:57.635Z,8.05
2023-01-18T18:41:30.024Z,8.33
2023-01-18T18:44:02.917Z,7.72
2023-01-18T18:46:35.343Z,8.03
2023-01-18T18:49:08.129Z,8.00
2023-01-18T18:51:40.568Z,7.40
2023-01-18T18:54:13.246Z,8.00
2023-01-18T18:56:45.610Z,8.03
2023-01-18T18:59:17.933Z,7.42
2023-01-18T19:01:51.946Z,7.05
2023-01-18T19:04:35.982Z,8.43
2023-01-18T19:07:08.777Z,8.28
2023-01-18T19:09:41.087Z,7.03
2023-01-18T19:12:13.492Z,7.70
2023-01-18T19:14:45.994Z,8.88
2023-01-18T19:17:29.384Z,8.10
2023-01-18T19:19:53.191Z,8.75
2023-01-18T19:22:25.579Z,8.83
2023-01-18T19:24:57.906Z,7.58
2023-01-18T19:27:31.378Z,8.58
2023-01-18T19:30:03.702Z,9.93
2023-01-18T19:32:36.280Z,9.30
2023-01-18T19:35:09.198Z,8.78
2023-01-18T19:37:41.792Z,9.50
2023-01-18T19:40:15.816Z,8.70
2023-01-18T19:45:28.803Z,8.68
2023-01-18T19:48:01.987Z,8.48
2023-01-18T19:53:06.226Z,8.63
2023-01-18T19:55:42.240Z,9.18
2023-01-18T19:58:14.556Z,9.43
2023-01-18T20:00:46.959Z,8.40
2023-01-18T20:03:19.745Z,9.25
2023-01-18T20:05:52.089Z,9.33
2023-01-18T20:08:24.370Z,9.35
2023-01-18T20:10:57.885Z,8.58
2023-01-18T20:13:30.359Z,9.85
2023-01-18T20:16:05.380Z,8.98
2023-01-18T20:18:41.349Z,9.60
2023-01-18T20:21:15.884Z,9.38
2023-01-18T20:26:34.971Z,9.13
2023-01-18T20:28:56.075Z,10.40
2023-01-18T20:31:29.694Z,9.75
2023-01-18T20:34:02.160Z,9.05
2023-01-18T20:36:37.771Z,9.55
2023-01-18T20:39:11.419Z,10.40
2023-01-18T20:41:44.198Z,8.93
2023-01-18T20:44:16.748Z,8.70
2023-01-18T20:46:51.052Z,8.48
2023-01-18T20:49:33.174Z,8.65
2023-01-18T20:51:58.580Z,8.58
2023-01-18T20:54:31.135Z,9.53
2023-01-18T20:57:03.589Z,8.33
2023-01-18T20:59:35.965Z,9.73
2023-01-18T21:02:08.399Z,8.83
2023-01-18T21:04:41.341Z,9.30
2023-01-18T21:07:13.843Z,9.48
2023-01-18T21:09:47.630Z,8.53
2023-01-18T21:12:20.298Z,8.43
2023-01-18T21:14:52.712Z,7.80
2023-01-18T21:17:25.067Z,9.93
2023-01-18T21:19:57.668Z,9.90
2023-01-18T21:22:30.237Z,9.40
2023-01-18T21:25:02.633Z,8.90
2023-01-18T21:27:36.755Z,8.78
2023-01-18T21:30:10.919Z,8.70
2023-01-18T21:32:45.282Z,10.08
2023-01-18T21:35:18.051Z,9.08
2023-01-18T21:37:50.334Z,8.95
2023-01-18T21:40:23.325Z,9.28
2023-01-18T21:43:13.793Z,10.03
2023-01-18T21:46:00.033Z,9.25
2023-01-18T21:48:33.214Z,9.90
2023-01-18T21:54:17.877Z,9.78
2023-01-18T21:56:52.400Z,9.98
2023-01-18T21:59:24.684Z,9.45
